Terminal Aerodrome Forecast
Issued by NWS

Home | Current Version | Previous Version | Text Only | Print | Product List | Glossary On
Versions: 1 2 3 4 5 6 7 8 9 10 11 12 13 14
000
FTUS43 KMQT 250520
TAFCMX
TAF
KCMX 250520Z 2506/2606 14006KT P6SM SCT060
     FM250800 14005KT P6SM BKN060
     FM251400 14008KT P6SM VCSH OVC035
     FM251600 15011G22KT P6SM -SHRA OVC025
     FM251900 15011G22KT P6SM -SHRA OVC017
     FM252300 18009KT P6SM VCSH OVC010
     FM260400 25010KT P6SM OVC025=

USA.gov is the U.S. government's official web portal to all federal, state and local government web resources and services.